createdAt,value
2019-01-24T00:00:31.259Z,-5.00
2019-01-24T00:03:19.717Z,-5.00
2019-01-24T00:06:09.171Z,-5.00
2019-01-24T00:08:58.235Z,-5.10
2019-01-24T00:11:46.825Z,-5.10
2019-01-24T00:14:36.850Z,-5.10
2019-01-24T00:17:25.888Z,-5.00
2019-01-24T00:20:16.840Z,-5.00
2019-01-24T00:23:05.796Z,-5.10
2019-01-24T00:25:55.004Z,-5.00
2019-01-24T00:28:43.583Z,-5.00
2019-01-24T00:31:32.611Z,-5.10
2019-01-24T00:34:23.336Z,-5.00
2019-01-24T00:37:12.299Z,-5.00
2019-01-24T00:40:01.065Z,-4.90
2019-01-24T00:42:49.930Z,-4.90
2019-01-24T00:45:39.074Z,-4.90
2019-01-24T00:48:27.931Z,-5.10
2019-01-24T00:51:16.875Z,-5.00
2019-01-24T00:54:05.761Z,-5.10
2019-01-24T00:56:55.101Z,-5.00
2019-01-24T00:59:44.061Z,-5.10
2019-01-24T01:02:32.840Z,-5.10
2019-01-24T01:05:22.250Z,-5.20
2019-01-24T01:08:11.315Z,-5.20
2019-01-24T01:10:59.592Z,-5.10
2019-01-24T01:13:48.724Z,-5.20
2019-01-24T01:16:37.523Z,-5.10
2019-01-24T01:19:26.234Z,-5.20
2019-01-24T01:22:15.075Z,-5.20
2019-01-24T01:25:06.236Z,-5.20
2019-01-24T01:27:55.357Z,-5.10
2019-01-24T01:30:44.682Z,-5.10
2019-01-24T01:33:33.597Z,-5.20
2019-01-24T01:36:22.335Z,-5.10
2019-01-24T01:39:10.935Z,-5.00
2019-01-24T01:42:00.357Z,-5.00
2019-01-24T01:44:49.514Z,-4.90
2019-01-24T01:47:38.097Z,-4.90
2019-01-24T01:50:27.420Z,-4.80
2019-01-24T01:53:16.257Z,-4.70
2019-01-24T01:56:05.253Z,-4.70
2019-01-24T01:58:54.207Z,-4.70
2019-01-24T02:01:42.654Z,-4.70
2019-01-24T02:04:31.713Z,-4.70
2019-01-24T02:07:20.643Z,-4.80
2019-01-24T02:10:21.516Z,-4.70
2019-01-24T02:13:10.908Z,-4.70
2019-01-24T02:15:59.543Z,-4.70
2019-01-24T02:18:48.736Z,-4.80
2019-01-24T02:21:37.584Z,-4.80
2019-01-24T02:24:26.044Z,-4.70
2019-01-24T02:27:15.033Z,-4.70
2019-01-24T02:30:05.957Z,-4.70
2019-01-24T02:32:54.952Z,-4.70
2019-01-24T02:35:43.657Z,-4.70
2019-01-24T02:38:32.835Z,-4.60
2019-01-24T02:41:21.464Z,-4.50
2019-01-24T02:44:10.486Z,-4.50
2019-01-24T02:46:58.877Z,-4.50
2019-01-24T02:49:48.098Z,-4.50
2019-01-24T02:52:37.156Z,-4.50
2019-01-24T02:55:26.309Z,-4.40
2019-01-24T02:58:15.572Z,-4.50
2019-01-24T03:01:04.693Z,-4.50
2019-01-24T03:03:53.662Z,-4.50
2019-01-24T03:06:42.702Z,-4.40
2019-01-24T03:09:31.291Z,-4.40
2019-01-24T03:12:20.190Z,-4.50
2019-01-24T03:15:21.289Z,-4.60
2019-01-24T03:18:10.390Z,-4.40
2019-01-24T03:20:59.195Z,-4.50
2019-01-24T03:23:48.090Z,-4.50
2019-01-24T03:26:36.841Z,-4.50
2019-01-24T03:29:25.790Z,-4.50
2019-01-24T03:32:14.977Z,-4.70
2019-01-24T03:35:04.990Z,-4.60
2019-01-24T03:37:53.788Z,-4.60
2019-01-24T03:40:42.740Z,-4.60
2019-01-24T03:43:32.119Z,-4.50
2019-01-24T03:46:20.938Z,-4.40
2019-01-24T03:49:10.274Z,-4.40
2019-01-24T03:51:58.905Z,-4.30
2019-01-24T03:54:47.307Z,-4.40
2019-01-24T03:57:36.074Z,-4.50
2019-01-24T04:00:25.968Z,-4.70
2019-01-24T04:03:14.935Z,-4.70
2019-01-24T04:06:03.932Z,-4.70
2019-01-24T04:08:52.310Z,-4.60
2019-01-24T04:11:41.299Z,-4.60
2019-01-24T04:14:30.273Z,-4.60
2019-01-24T04:17:19.174Z,-4.60
2019-01-24T04:20:10.409Z,-4.50
2019-01-24T04:22:59.027Z,-4.50
2019-01-24T04:25:47.544Z,-4.60
2019-01-24T04:28:36.432Z,-4.60
2019-01-24T04:31:25.435Z,-4.60
2019-01-24T04:34:14.362Z,-4.60
2019-01-24T04:37:03.528Z,-4.50
2019-01-24T04:39:52.138Z,-4.30
2019-01-24T04:42:41.494Z,-4.30
2019-01-24T04:45:30.119Z,-4.30
2019-01-24T04:48:19.107Z,-4.30
2019-01-24T04:51:07.769Z,-4.10
2019-01-24T04:53:57.199Z,-4.10
2019-01-24T04:56:46.357Z,-4.10
2019-01-24T04:59:35.432Z,-4.20
2019-01-24T05:02:24.041Z,-4.10
2019-01-24T05:05:12.815Z,-3.90
2019-01-24T05:08:01.439Z,-3.90
2019-01-24T05:10:50.656Z,-3.90
2019-01-24T05:13:39.702Z,-4.00
2019-01-24T05:16:28.730Z,-3.90
2019-01-24T05:19:17.884Z,-3.70
2019-01-24T05:22:07.096Z,-3.70
2019-01-24T05:24:56.565Z,-3.70
2019-01-24T05:27:45.172Z,-3.70
2019-01-24T05:30:34.583Z,-3.60
2019-01-24T05:33:23.643Z,-3.50
2019-01-24T05:36:12.317Z,-3.40
2019-01-24T05:39:01.124Z,-3.30
2019-01-24T05:41:50.336Z,-3.40
2019-01-24T05:44:39.047Z,-3.50
2019-01-24T05:47:28.052Z,-3.50
2019-01-24T05:50:17.185Z,-3.40
2019-01-24T05:53:05.798Z,-3.30
2019-01-24T05:55:54.097Z,-3.10
2019-01-24T05:58:43.136Z,-3.10
2019-01-24T06:01:32.409Z,-3.30
2019-01-24T06:04:21.586Z,-3.40
2019-01-24T06:07:10.457Z,-3.50
2019-01-24T06:09:59.397Z,-3.40
2019-01-24T06:12:48.615Z,-3.40
2019-01-24T06:15:37.914Z,-3.40
2019-01-24T06:18:27.194Z,-3.40
2019-01-24T06:21:15.525Z,-3.30
2019-01-24T06:24:03.878Z,-3.30
2019-01-24T06:26:52.739Z,-3.40
2019-01-24T06:29:41.486Z,-3.50
2019-01-24T06:32:29.786Z,-3.50
2019-01-24T06:35:18.286Z,-3.60
2019-01-24T06:38:06.999Z,-3.70
2019-01-24T06:40:57.144Z,-3.80
2019-01-24T06:43:46.449Z,-3.80
2019-01-24T06:46:35.524Z,-3.80
2019-01-24T06:49:23.813Z,-3.70
2019-01-24T06:52:12.690Z,-3.70
2019-01-24T06:55:02.519Z,-3.80
2019-01-24T06:57:51.373Z,-3.70
2019-01-24T07:00:40.458Z,-3.70
2019-01-24T07:03:28.801Z,-3.70
2019-01-24T07:06:17.564Z,-3.70
2019-01-24T07:09:08.631Z,-3.60
2019-01-24T07:11:57.556Z,-3.70
2019-01-24T07:14:46.180Z,-3.60
2019-01-24T07:17:35.013Z,-3.60
2019-01-24T07:20:24.030Z,-3.40
2019-01-24T07:23:13.050Z,-3.30
2019-01-24T07:26:01.914Z,-3.30
2019-01-24T07:28:51.195Z,-3.40
2019-01-24T07:31:40.644Z,-3.40
2019-01-24T07:34:28.889Z,-3.50
2019-01-24T07:37:17.709Z,-3.50
2019-01-24T07:40:19.013Z,-3.50
2019-01-24T07:43:08.187Z,-3.40
2019-01-24T07:45:57.385Z,-3.40
2019-01-24T07:48:46.385Z,-3.40
2019-01-24T07:51:34.988Z,-3.30
2019-01-24T07:54:23.910Z,-3.20
2019-01-24T07:57:12.990Z,-3.20
2019-01-24T08:00:01.860Z,-3.20
2019-01-24T08:02:50.727Z,-3.20
2019-01-24T08:05:39.927Z,-3.00
2019-01-24T08:08:29.317Z,-3.10
2019-01-24T08:11:18.287Z,-2.90
2019-01-24T08:14:07.465Z,-2.90
2019-01-24T08:16:56.281Z,-2.90
2019-01-24T08:19:45.303Z,-3.00
2019-01-24T08:22:34.099Z,-3.00
2019-01-24T08:25:22.679Z,-3.00
2019-01-24T08:28:11.308Z,-3.00
2019-01-24T08:31:00.335Z,-3.00
2019-01-24T08:33:49.221Z,-3.00
2019-01-24T08:36:38.174Z,-2.90
2019-01-24T08:39:26.801Z,-2.80
2019-01-24T08:42:15.800Z,-2.80
2019-01-24T08:45:08.526Z,-2.70
2019-01-24T08:47:57.153Z,-2.80
2019-01-24T08:50:46.174Z,-2.80
2019-01-24T08:53:34.850Z,-2.80
2019-01-24T08:56:23.807Z,-2.70
2019-01-24T08:59:12.544Z,-2.70
2019-01-24T09:02:01.672Z,-2.60
2019-01-24T09:04:51.379Z,-2.50
2019-01-24T09:07:40.054Z,-2.70
2019-01-24T09:10:32.797Z,-2.60
2019-01-24T09:13:21.627Z,-2.70
2019-01-24T09:16:10.545Z,-2.60
2019-01-24T09:18:59.706Z,-2.50
2019-01-24T09:21:48.816Z,-2.40
2019-01-24T09:24:37.909Z,-2.30
2019-01-24T09:27:26.566Z,-2.40
2019-01-24T09:30:22.905Z,-2.30
2019-01-24T09:33:11.697Z,-2.30
2019-01-24T09:36:00.883Z,-2.30
2019-01-24T09:38:50.054Z,-2.30
2019-01-24T09:41:38.834Z,-2.40
2019-01-24T09:44:27.772Z,-2.40
2019-01-24T09:47:16.484Z,-2.50
2019-01-24T09:50:10.231Z,-2.50
2019-01-24T09:52:58.884Z,-2.50
2019-01-24T09:55:47.493Z,-2.50
2019-01-24T09:58:36.504Z,-2.50
2019-01-24T10:01:24.943Z,-2.40
2019-01-24T10:04:13.738Z,-2.40
2019-01-24T10:07:02.947Z,-2.30
2019-01-24T10:09:51.728Z,-2.20
2019-01-24T10:12:40.639Z,-2.30
2019-01-24T10:15:28.977Z,-2.30
2019-01-24T10:18:21.753Z,-2.40
2019-01-24T10:21:08.681Z,-2.50
2019-01-24T10:23:57.643Z,-2.30
2019-01-24T10:26:45.871Z,-2.20
2019-01-24T10:29:34.549Z,-2.20
2019-01-24T10:32:23.620Z,-2.30
2019-01-24T10:35:12.949Z,-2.30
2019-01-24T10:38:02.037Z,-2.40
2019-01-24T10:40:51.094Z,-2.20
2019-01-24T10:43:39.986Z,-2.10
2019-01-24T10:46:28.818Z,-2.20
2019-01-24T10:49:17.833Z,-2.30
2019-01-24T10:52:06.784Z,-2.40
2019-01-24T10:54:55.922Z,-2.30
2019-01-24T10:57:44.690Z,-2.20
2019-01-24T11:00:37.594Z,-2.20
2019-01-24T11:03:26.287Z,-2.20
2019-01-24T11:06:14.987Z,-2.20
2019-01-24T11:09:04.639Z,-2.30
2019-01-24T11:11:53.381Z,-2.20
2019-01-24T11:14:42.320Z,-2.20
2019-01-24T11:17:31.213Z,-2.30
2019-01-24T11:20:21.377Z,-2.40
2019-01-24T11:23:10.385Z,-2.50
2019-01-24T11:25:59.261Z,-2.50
2019-01-24T11:28:48.495Z,-2.50
2019-01-24T11:31:37.553Z,-2.40
2019-01-24T11:34:26.758Z,-2.40
2019-01-24T11:37:15.410Z,-2.40
2019-01-24T11:40:08.461Z,-2.30
2019-01-24T11:42:57.031Z,-2.40
2019-01-24T11:45:46.087Z,-2.30
2019-01-24T11:48:35.080Z,-2.30
2019-01-24T11:51:24.276Z,-2.30
2019-01-24T11:54:13.142Z,-2.20
2019-01-24T11:57:02.203Z,-2.20
2019-01-24T11:59:50.799Z,-2.10
2019-01-24T12:02:39.952Z,-2.10
2019-01-24T12:05:29.328Z,-2.10
2019-01-24T12:08:17.734Z,-2.10
2019-01-24T12:11:06.786Z,-1.90
2019-01-24T12:13:55.473Z,-1.90
2019-01-24T12:16:44.478Z,-2.10
2019-01-24T12:19:33.090Z,-2.20
2019-01-24T12:22:21.496Z,-2.20
2019-01-24T12:25:11.115Z,-2.00
2019-01-24T12:28:00.154Z,-2.00
2019-01-24T12:30:49.203Z,-1.90
2019-01-24T12:33:38.227Z,-1.90
2019-01-24T12:36:27.352Z,-1.90
2019-01-24T12:39:16.119Z,-1.90
2019-01-24T12:42:05.039Z,-1.90
2019-01-24T12:44:53.738Z,-1.80
2019-01-24T12:47:42.573Z,-1.50
2019-01-24T12:50:31.377Z,-1.70
2019-01-24T12:53:20.160Z,-1.50
2019-01-24T12:56:08.943Z,-1.60
2019-01-24T12:58:57.955Z,-1.60
2019-01-24T13:01:46.987Z,-1.50
2019-01-24T13:04:35.861Z,-1.50
2019-01-24T13:07:24.652Z,-1.50
2019-01-24T13:10:17.973Z,-1.50
2019-01-24T13:13:06.401Z,-1.60
2019-01-24T13:15:55.654Z,-1.70
2019-01-24T13:18:44.751Z,-1.60
2019-01-24T13:21:33.177Z,-1.60
2019-01-24T13:24:22.162Z,-1.50
2019-01-24T13:27:10.855Z,-1.30
2019-01-24T13:29:59.559Z,-1.40
2019-01-24T13:32:47.993Z,-1.50
2019-01-24T13:35:37.757Z,-1.50
2019-01-24T13:38:26.725Z,-1.40
2019-01-24T13:41:15.505Z,-1.60
2019-01-24T13:44:04.783Z,-1.60
2019-01-24T13:46:53.839Z,-1.50
2019-01-24T13:49:42.602Z,-1.50
2019-01-24T13:52:31.481Z,-1.60
2019-01-24T13:55:20.339Z,-1.60
2019-01-24T13:58:09.381Z,-1.90
2019-01-24T14:00:58.306Z,-1.90
2019-01-24T14:03:47.866Z,-1.90
2019-01-24T14:06:36.512Z,-1.90
2019-01-24T14:09:25.634Z,-1.90
2019-01-24T14:12:14.037Z,-2.00
2019-01-24T14:15:02.912Z,-1.90
2019-01-24T14:17:52.229Z,-1.90
2019-01-24T14:20:41.166Z,-2.00
2019-01-24T14:23:30.162Z,-1.80
2019-01-24T14:26:19.381Z,-1.80
2019-01-24T14:29:08.260Z,-1.70
2019-01-24T14:31:57.493Z,-1.90
2019-01-24T14:34:46.209Z,-2.00
2019-01-24T14:37:39.751Z,-2.00
2019-01-24T14:40:27.310Z,-2.00
2019-01-24T14:43:16.041Z,-2.00
2019-01-24T14:46:04.644Z,-1.90
2019-01-24T14:48:54.016Z,-1.90
2019-01-24T14:51:42.678Z,-1.90
2019-01-24T14:54:31.426Z,-1.90
2019-01-24T14:57:20.314Z,-1.70
2019-01-24T15:00:34.710Z,-1.60
2019-01-24T15:03:23.905Z,-1.70
2019-01-24T15:06:12.500Z,-2.00
2019-01-24T15:09:01.256Z,-2.00
2019-01-24T15:11:50.541Z,-2.10
2019-01-24T15:14:39.432Z,-2.00
2019-01-24T15:17:28.454Z,-2.00
2019-01-24T15:20:19.223Z,-2.00
2019-01-24T15:23:08.265Z,-2.00
2019-01-24T15:25:57.094Z,-2.10
2019-01-24T15:28:45.822Z,-2.10
2019-01-24T15:31:34.533Z,-2.10
2019-01-24T15:34:22.917Z,-2.10
2019-01-24T15:37:12.038Z,-2.00
2019-01-24T15:40:01.015Z,-2.10
2019-01-24T15:42:49.881Z,-2.00
2019-01-24T15:45:39.250Z,-2.00
2019-01-24T15:48:28.164Z,-2.00
2019-01-24T15:51:17.277Z,-1.90
2019-01-24T15:54:06.149Z,-1.90
2019-01-24T15:56:55.510Z,-2.00
2019-01-24T15:59:44.714Z,-1.90
2019-01-24T16:02:33.371Z,-1.90
2019-01-24T16:05:22.454Z,-1.90
2019-01-24T16:08:11.515Z,-2.00
2019-01-24T16:11:00.696Z,-2.10
2019-01-24T16:13:49.775Z,-2.10
2019-01-24T16:16:38.299Z,-2.10
2019-01-24T16:19:27.453Z,-2.10
2019-01-24T16:22:16.559Z,-2.10
2019-01-24T16:25:07.717Z,-2.10
2019-01-24T16:27:56.396Z,-2.00
2019-01-24T16:30:45.185Z,-1.90
2019-01-24T16:33:34.072Z,-2.00
2019-01-24T16:36:23.201Z,-2.00
2019-01-24T16:39:11.840Z,-2.00
2019-01-24T16:42:00.819Z,-2.10
2019-01-24T16:44:49.371Z,-2.10
2019-01-24T16:47:38.417Z,-2.00
2019-01-24T16:50:28.727Z,-1.90
2019-01-24T16:53:17.567Z,-2.00
2019-01-24T16:56:06.726Z,-1.90
2019-01-24T16:58:55.319Z,-1.90
2019-01-24T17:01:44.101Z,-1.80
2019-01-24T17:04:32.910Z,-1.70
2019-01-24T17:07:22.097Z,-1.80
2019-01-24T17:10:20.940Z,-1.90
2019-01-24T17:13:10.152Z,-1.90
2019-01-24T17:15:59.422Z,-1.90
2019-01-24T17:18:48.519Z,-1.90
2019-01-24T17:21:37.804Z,-1.80
2019-01-24T17:24:26.922Z,-1.80
2019-01-24T17:27:15.308Z,-1.80
2019-01-24T17:30:07.654Z,-1.90
2019-01-24T17:32:57.058Z,-2.00
2019-01-24T17:35:46.104Z,-1.90
2019-01-24T17:38:34.783Z,-1.80
2019-01-24T17:41:23.153Z,-2.00
2019-01-24T17:44:13.345Z,-2.10
2019-01-24T17:47:01.699Z,-2.10
2019-01-24T17:49:51.584Z,-2.10
2019-01-24T17:52:40.754Z,-2.10
2019-01-24T17:55:34.173Z,-2.00
2019-01-24T17:58:23.408Z,-1.90
2019-01-24T18:01:12.106Z,-2.00
2019-01-24T18:04:01.172Z,-2.00
2019-01-24T18:06:50.183Z,-1.90
2019-01-24T18:09:39.300Z,-1.90
2019-01-24T18:12:28.002Z,-1.90
2019-01-24T18:15:29.875Z,-2.00
2019-01-24T18:18:18.830Z,-2.10
2019-01-24T18:21:07.610Z,-2.00
2019-01-24T18:23:56.962Z,-2.00
2019-01-24T18:26:45.903Z,-1.90
2019-01-24T18:29:34.549Z,-1.70
2019-01-24T18:32:23.526Z,-1.70
2019-01-24T18:35:12.540Z,-1.90
2019-01-24T18:38:01.988Z,-1.80
2019-01-24T18:40:51.138Z,-1.80
2019-01-24T18:43:39.738Z,-1.90
2019-01-24T18:46:28.490Z,-1.90
2019-01-24T18:49:16.942Z,-1.80
2019-01-24T18:52:06.241Z,-1.80
2019-01-24T18:54:55.138Z,-1.80
2019-01-24T18:57:44.474Z,-1.90
2019-01-24T19:00:35.222Z,-1.90
2019-01-24T19:03:23.725Z,-1.90
2019-01-24T19:06:12.022Z,-2.00
2019-01-24T19:09:01.236Z,-1.90
2019-01-24T19:11:50.345Z,-1.90
2019-01-24T19:14:39.006Z,-1.90
2019-01-24T19:17:28.062Z,-1.90
2019-01-24T19:20:17.311Z,-1.90
2019-01-24T19:23:06.676Z,-1.90
2019-01-24T19:25:55.918Z,-1.90
2019-01-24T19:28:44.939Z,-2.00
2019-01-24T19:31:33.399Z,-2.00
2019-01-24T19:34:22.350Z,-1.90
2019-01-24T19:37:10.775Z,-1.90
2019-01-24T19:39:59.531Z,-2.00
2019-01-24T19:42:48.328Z,-1.90
2019-01-24T19:45:37.106Z,-1.90
2019-01-24T19:48:27.777Z,-2.00
2019-01-24T19:51:16.354Z,-1.90
2019-01-24T19:54:06.134Z,-2.10
2019-01-24T19:56:55.011Z,-2.10
2019-01-24T19:59:44.070Z,-2.10
2019-01-24T20:02:33.111Z,-2.00
2019-01-24T20:05:22.488Z,-2.10
2019-01-24T20:08:11.301Z,-2.20
2019-01-24T20:11:00.363Z,-2.20
2019-01-24T20:13:49.284Z,-2.20
2019-01-24T20:16:38.510Z,-2.20
2019-01-24T20:19:27.691Z,-2.20
2019-01-24T20:22:16.556Z,-2.20
2019-01-24T20:25:10.221Z,-2.10
2019-01-24T20:27:59.398Z,-2.10
2019-01-24T20:30:48.087Z,-2.10
2019-01-24T20:33:36.681Z,-2.10
2019-01-24T20:36:25.236Z,-2.10
2019-01-24T20:39:14.394Z,-2.10
2019-01-24T20:42:03.618Z,-2.10
2019-01-24T20:44:52.982Z,-2.10
2019-01-24T20:47:43.205Z,-2.20
2019-01-24T20:50:31.953Z,-2.20
2019-01-24T20:53:21.017Z,-2.20
2019-01-24T20:56:09.716Z,-2.20
2019-01-24T20:58:58.459Z,-2.20
2019-01-24T21:01:47.227Z,-2.20
2019-01-24T21:04:37.831Z,-2.10
2019-01-24T21:07:27.165Z,-2.20
2019-01-24T21:10:26.198Z,-2.20
2019-01-24T21:13:14.937Z,-2.10
2019-01-24T21:16:03.374Z,-2.20
2019-01-24T21:18:52.673Z,-2.10
2019-01-24T21:21:41.074Z,-2.00
2019-01-24T21:24:30.170Z,-2.00
2019-01-24T21:27:18.962Z,-2.00
2019-01-24T21:30:15.022Z,-1.90
2019-01-24T21:33:04.597Z,-2.00
2019-01-24T21:35:53.408Z,-2.00
2019-01-24T21:38:41.996Z,-2.10
2019-01-24T21:41:30.922Z,-2.20
2019-01-24T21:44:19.282Z,-2.20
2019-01-24T21:47:07.940Z,-2.20
2019-01-24T21:49:56.534Z,-2.20
2019-01-24T21:52:45.442Z,-2.10
2019-01-24T21:55:34.842Z,-2.10
2019-01-24T21:58:23.746Z,-2.10
2019-01-24T22:01:12.906Z,-2.10
2019-01-24T22:04:01.546Z,-2.10
2019-01-24T22:06:50.646Z,-2.10
2019-01-24T22:09:39.481Z,-2.10
2019-01-24T22:12:28.405Z,-2.00
2019-01-24T22:15:21.525Z,-2.10
2019-01-24T22:18:10.068Z,-1.90
2019-01-24T22:20:59.069Z,-2.10
2019-01-24T22:23:47.496Z,-2.00
2019-01-24T22:26:36.201Z,-2.10
2019-01-24T22:29:24.456Z,-2.10
2019-01-24T22:32:13.378Z,-2.10
2019-01-24T22:35:02.482Z,-2.10
2019-01-24T22:37:51.592Z,-2.10
2019-01-24T22:40:40.739Z,-2.20
2019-01-24T22:43:29.901Z,-2.20
2019-01-24T22:46:18.981Z,-2.10
2019-01-24T22:49:07.605Z,-2.10
2019-01-24T22:51:56.294Z,-2.20
2019-01-24T22:54:45.223Z,-2.10
2019-01-24T22:57:34.750Z,-2.10
2019-01-24T23:00:51.303Z,-2.10
2019-01-24T23:03:43.849Z,-2.20
2019-01-24T23:06:32.940Z,-2.10
2019-01-24T23:09:22.159Z,-2.00
2019-01-24T23:12:11.203Z,-1.90
2019-01-24T23:15:00.327Z,-2.00
2019-01-24T23:17:49.097Z,-2.00
2019-01-24T23:20:38.236Z,-2.00
2019-01-24T23:23:27.333Z,-2.00
2019-01-24T23:26:16.427Z,-2.00
2019-01-24T23:29:05.636Z,-2.10
2019-01-24T23:31:54.334Z,-1.90
2019-01-24T23:34:42.627Z,-1.90
2019-01-24T23:37:31.581Z,-1.80
2019-01-24T23:40:20.553Z,-1.90
2019-01-24T23:43:09.410Z,-1.80
2019-01-24T23:45:57.747Z,-1.90
2019-01-24T23:48:46.179Z,-1.90
2019-01-24T23:51:35.021Z,-1.90
2019-01-24T23:54:24.695Z,-1.90
2019-01-24T23:57:13.124Z,-1.80
